createdAt,value
2023-02-20T00:01:35.989Z,2.16
2023-02-20T00:04:03.002Z,2.16
2023-02-20T00:06:30.459Z,2.12
2023-02-20T00:08:57.419Z,2.07
2023-02-20T00:11:24.660Z,2.11
2023-02-20T00:13:51.707Z,2.14
2023-02-20T00:16:18.925Z,2.13
2023-02-20T00:18:48.171Z,2.14
2023-02-20T00:21:15.629Z,2.17
2023-02-20T00:23:42.723Z,2.21
2023-02-20T00:26:14.765Z,2.23
2023-02-20T00:28:44.610Z,2.21
2023-02-20T00:31:16.456Z,2.18
2023-02-20T00:33:43.600Z,2.25
2023-02-20T00:36:19.971Z,2.24
2023-02-20T00:38:47.587Z,2.20
2023-02-20T00:41:17.365Z,2.23
2023-02-20T00:43:44.533Z,2.23
2023-02-20T00:46:14.761Z,2.22
2023-02-20T00:48:42.844Z,2.20
2023-02-20T00:51:29.619Z,2.22
2023-02-20T00:53:57.082Z,2.27
2023-02-20T00:56:26.784Z,2.30
2023-02-20T00:58:54.313Z,2.23
2023-02-20T01:01:22.332Z,2.20
2023-02-20T01:03:51.163Z,2.24
2023-02-20T01:06:19.147Z,2.24
2023-02-20T01:08:46.959Z,2.23
2023-02-20T01:11:14.156Z,2.19
2023-02-20T01:13:41.576Z,2.20
2023-02-20T01:16:09.469Z,2.15
2023-02-20T01:18:36.585Z,2.12
2023-02-20T01:21:03.911Z,2.11
2023-02-20T01:23:31.270Z,2.11
2023-02-20T01:25:58.437Z,2.11
2023-02-20T01:28:25.505Z,2.07
2023-02-20T01:30:52.845Z,2.14
2023-02-20T01:33:19.971Z,2.20
2023-02-20T01:35:47.270Z,2.20
2023-02-20T01:38:14.272Z,2.20
2023-02-20T01:40:49.242Z,2.16
2023-02-20T01:43:17.496Z,2.18
2023-02-20T01:45:45.904Z,2.11
2023-02-20T01:48:24.636Z,2.10
2023-02-20T01:50:58.523Z,2.11
2023-02-20T01:53:30.594Z,2.09
2023-02-20T01:56:05.179Z,2.08
2023-02-20T01:58:46.906Z,2.10
2023-02-20T02:01:14.214Z,2.13
2023-02-20T02:03:47.831Z,2.12
2023-02-20T02:06:17.819Z,2.11
2023-02-20T02:08:46.549Z,2.13
2023-02-20T02:11:22.832Z,2.11
2023-02-20T02:13:50.338Z,2.10
2023-02-20T02:17:03.231Z,2.08
2023-02-20T02:19:49.368Z,2.11
2023-02-20T02:22:49.866Z,2.13
2023-02-20T02:25:56.750Z,2.14
2023-02-20T02:29:17.599Z,2.13
2023-02-20T02:32:17.276Z,2.16
2023-02-20T02:35:03.279Z,2.19
2023-02-20T02:37:53.071Z,2.16
2023-02-20T02:41:06.160Z,2.15
2023-02-20T02:43:46.386Z,2.19
2023-02-20T02:46:34.625Z,2.21
2023-02-20T02:49:16.495Z,2.16
2023-02-20T02:51:47.948Z,2.14
2023-02-20T02:54:20.801Z,2.20
2023-02-20T02:56:49.212Z,2.22
2023-02-20T02:59:32.407Z,2.23
2023-02-20T03:02:08.107Z,2.24
2023-02-20T03:04:38.213Z,2.24
2023-02-20T03:07:16.204Z,2.27
2023-02-20T03:10:20.359Z,2.30
2023-02-20T03:12:51.249Z,2.30
2023-02-20T03:15:33.535Z,2.29
2023-02-20T03:18:35.001Z,2.30
2023-02-20T03:21:14.769Z,2.30
2023-02-20T03:23:57.336Z,2.30
2023-02-20T03:26:34.483Z,2.30
2023-02-20T03:29:18.932Z,2.30
2023-02-20T03:32:11.346Z,2.29
2023-02-20T03:35:00.141Z,2.28
2023-02-20T03:37:50.173Z,2.27
2023-02-20T03:40:39.184Z,2.24
2023-02-20T03:43:25.970Z,2.23
2023-02-20T03:46:03.386Z,2.22
2023-02-20T03:48:45.045Z,2.21
2023-02-20T03:51:14.151Z,2.24
2023-02-20T03:53:56.787Z,2.23
2023-02-20T03:56:32.886Z,2.24
2023-02-20T03:59:18.605Z,2.24
2023-02-20T04:01:54.774Z,2.22
2023-02-20T04:04:33.086Z,2.19
2023-02-20T04:07:12.484Z,2.16
2023-02-20T04:09:45.646Z,2.09
2023-02-20T04:12:38.731Z,2.10
2023-02-20T04:15:10.142Z,2.13
2023-02-20T04:17:48.387Z,2.14
2023-02-20T04:20:17.336Z,2.13
2023-02-20T04:23:02.854Z,2.13
2023-02-20T04:25:53.506Z,2.10
2023-02-20T04:28:22.559Z,2.09
2023-02-20T04:30:55.972Z,2.10
2023-02-20T04:33:25.336Z,2.10
2023-02-20T04:35:58.360Z,2.14
2023-02-20T04:38:26.344Z,2.15
2023-02-20T04:40:53.501Z,2.11
2023-02-20T04:43:22.905Z,2.08
2023-02-20T04:45:51.500Z,2.03
2023-02-20T04:48:19.612Z,2.02
2023-02-20T04:50:47.578Z,1.98
2023-02-20T04:53:16.078Z,1.98
2023-02-20T04:55:43.296Z,2.00
2023-02-20T04:58:14.260Z,1.94
2023-02-20T05:00:51.894Z,1.91
2023-02-20T05:03:19.174Z,1.91
2023-02-20T05:05:46.180Z,1.91
2023-02-20T05:08:13.505Z,1.90
2023-02-20T05:10:40.654Z,1.90
2023-02-20T05:13:07.892Z,1.89
2023-02-20T05:15:35.091Z,1.89
2023-02-20T05:18:02.364Z,1.86
2023-02-20T05:20:47.838Z,1.85
2023-02-20T05:23:15.101Z,1.81
2023-02-20T05:25:42.049Z,1.85
2023-02-20T05:28:09.550Z,1.86
2023-02-20T05:30:36.681Z,1.86
2023-02-20T05:33:04.089Z,1.87
2023-02-20T05:35:31.225Z,1.88
2023-02-20T05:37:58.421Z,1.88
2023-02-20T05:40:25.360Z,1.88
2023-02-20T05:42:52.614Z,1.90
2023-02-20T05:45:19.573Z,1.92
2023-02-20T05:47:46.764Z,1.92
2023-02-20T05:50:13.816Z,1.91
2023-02-20T05:52:41.066Z,1.90
2023-02-20T05:55:08.574Z,1.89
2023-02-20T05:57:35.827Z,1.92
2023-02-20T06:00:04.192Z,1.91
2023-02-20T06:02:39.415Z,1.89
2023-02-20T06:05:07.650Z,1.89
2023-02-20T06:07:35.963Z,1.91
2023-02-20T06:10:08.664Z,1.95
2023-02-20T06:12:35.934Z,1.96
2023-02-20T06:15:04.587Z,2.01
2023-02-20T06:17:34.639Z,2.05
2023-02-20T06:20:03.537Z,2.06
2023-02-20T06:22:30.707Z,2.06
2023-02-20T06:24:57.734Z,2.04
2023-02-20T06:27:25.151Z,2.03
2023-02-20T06:29:53.031Z,2.04
2023-02-20T06:32:20.439Z,2.06
2023-02-20T06:34:47.563Z,2.06
2023-02-20T06:37:14.948Z,2.08
2023-02-20T06:39:45.743Z,2.08
2023-02-20T06:42:12.945Z,2.11
2023-02-20T06:44:39.907Z,2.13
2023-02-20T06:47:09.138Z,2.13
2023-02-20T06:49:36.987Z,2.15
2023-02-20T06:52:07.788Z,2.15
2023-02-20T06:54:35.116Z,2.15
2023-02-20T06:57:05.054Z,2.17
2023-02-20T06:59:33.017Z,2.20
2023-02-20T07:02:00.651Z,2.24
2023-02-20T07:04:28.084Z,2.25
2023-02-20T07:06:56.188Z,2.28
2023-02-20T07:09:25.125Z,2.30
2023-02-20T07:11:53.426Z,2.32
2023-02-20T07:14:21.468Z,2.34
2023-02-20T07:16:48.757Z,2.37
2023-02-20T07:19:15.801Z,2.39
2023-02-20T07:21:43.080Z,2.43
2023-02-20T07:24:10.018Z,2.47
2023-02-20T07:26:39.338Z,2.49
2023-02-20T07:29:07.336Z,2.51
2023-02-20T07:31:34.805Z,2.54
2023-02-20T07:34:02.871Z,2.58
2023-02-20T07:36:36.502Z,2.62
2023-02-20T07:39:06.630Z,2.66
2023-02-20T07:41:37.560Z,2.74
2023-02-20T07:44:06.900Z,2.81
2023-02-20T07:46:34.476Z,2.86
2023-02-20T07:49:04.020Z,2.89
2023-02-20T07:51:32.494Z,2.94
2023-02-20T07:53:59.761Z,3.00
2023-02-20T07:56:27.371Z,3.08
2023-02-20T07:58:54.553Z,3.18
2023-02-20T08:01:21.965Z,3.27
2023-02-20T08:03:49.041Z,3.34
2023-02-20T08:06:20.237Z,3.40
2023-02-20T08:08:51.802Z,3.47
2023-02-20T08:11:21.948Z,3.56
2023-02-20T08:13:51.490Z,3.67
2023-02-20T08:16:18.768Z,3.79
2023-02-20T08:18:45.883Z,3.90
2023-02-20T08:21:13.167Z,3.98
2023-02-20T08:23:40.150Z,4.09
2023-02-20T08:26:07.565Z,4.24
2023-02-20T08:28:34.714Z,4.31
2023-02-20T08:31:04.062Z,4.39
2023-02-20T08:33:31.288Z,4.45
2023-02-20T08:35:58.880Z,4.53
2023-02-20T08:38:34.375Z,4.61
2023-02-20T08:41:11.845Z,4.66
2023-02-20T08:43:41.187Z,4.72
2023-02-20T08:46:08.538Z,4.75
2023-02-20T08:48:35.855Z,4.82
2023-02-20T08:51:03.563Z,4.96
2023-02-20T08:53:30.609Z,5.33
2023-02-20T08:55:57.910Z,5.47
2023-02-20T08:58:26.115Z,5.50
2023-02-20T09:00:54.740Z,5.37
2023-02-20T09:03:23.080Z,5.40
2023-02-20T09:05:50.567Z,5.47
2023-02-20T09:08:17.601Z,5.57
2023-02-20T09:10:45.237Z,5.70
2023-02-20T09:13:12.981Z,5.89
2023-02-20T09:15:40.693Z,5.99
2023-02-20T09:18:12.639Z,6.03
2023-02-20T09:20:41.449Z,6.13
2023-02-20T09:23:08.821Z,6.18
2023-02-20T09:25:37.159Z,6.23
2023-02-20T09:28:04.392Z,6.25
2023-02-20T09:30:31.988Z,6.27
2023-02-20T09:32:58.944Z,6.36
2023-02-20T09:35:31.057Z,6.38
2023-02-20T09:37:58.245Z,6.42
2023-02-20T09:40:29.375Z,6.44
2023-02-20T09:43:29.192Z,6.43
2023-02-20T09:46:16.530Z,6.43
2023-02-20T09:49:10.111Z,6.48
2023-02-20T09:51:44.558Z,6.51
2023-02-20T09:54:24.693Z,6.51
2023-02-20T09:57:01.330Z,6.52
2023-02-20T09:59:57.566Z,6.59
2023-02-20T10:02:34.407Z,6.66
2023-02-20T10:05:21.120Z,6.67
2023-02-20T10:07:51.033Z,6.72
2023-02-20T10:10:34.081Z,6.82
2023-02-20T10:13:34.476Z,6.91
2023-02-20T10:16:36.794Z,7.03
2023-02-20T10:19:49.527Z,7.12
2023-02-20T10:22:25.187Z,7.21
2023-02-20T10:25:19.785Z,7.26
2023-02-20T10:28:11.025Z,7.30
2023-02-20T10:30:50.216Z,7.38
2023-02-20T10:33:30.893Z,7.42
2023-02-20T10:36:15.940Z,7.45
2023-02-20T10:38:54.124Z,7.43
2023-02-20T10:41:32.806Z,7.46
2023-02-20T10:44:52.569Z,7.47
2023-02-20T10:47:38.023Z,7.43
2023-02-20T10:50:54.040Z,7.40
2023-02-20T10:54:01.361Z,7.44
2023-02-20T10:56:50.545Z,7.50
2023-02-20T10:59:39.433Z,7.53
2023-02-20T11:02:19.922Z,7.58
2023-02-20T11:04:57.467Z,7.61
2023-02-20T11:07:25.428Z,7.63
2023-02-20T11:09:52.849Z,7.71
2023-02-20T11:12:51.878Z,7.80
2023-02-20T11:15:29.049Z,7.80
2023-02-20T11:17:58.160Z,7.80
2023-02-20T11:20:46.327Z,7.83
2023-02-20T11:23:39.880Z,7.87
2023-02-20T11:26:21.652Z,7.88
2023-02-20T11:29:34.732Z,7.90
2023-02-20T11:32:31.697Z,7.96
2023-02-20T11:35:34.788Z,8.02
2023-02-20T11:38:21.215Z,8.06
2023-02-20T11:41:00.688Z,8.08
2023-02-20T11:43:43.552Z,8.09
2023-02-20T11:46:22.565Z,8.09
2023-02-20T11:49:31.473Z,8.08
2023-02-20T11:52:20.661Z,8.13
2023-02-20T11:55:09.948Z,8.18
2023-02-20T11:57:52.387Z,8.21
2023-02-20T12:00:23.421Z,8.30
2023-02-20T12:03:22.892Z,8.36
2023-02-20T12:05:51.864Z,8.44
2023-02-20T12:09:01.960Z,8.47
2023-02-20T12:11:29.858Z,8.53
2023-02-20T12:14:00.804Z,8.57
2023-02-20T12:16:49.921Z,8.64
2023-02-20T12:20:05.747Z,8.67
2023-02-20T12:22:39.029Z,8.70
2023-02-20T12:25:21.151Z,8.79
2023-02-20T12:28:49.085Z,8.86
2023-02-20T12:31:38.143Z,8.82
2023-02-20T12:34:20.684Z,8.78
2023-02-20T12:37:28.983Z,8.83
2023-02-20T12:40:27.623Z,8.88
2023-02-20T12:43:40.309Z,8.88
2023-02-20T12:47:01.648Z,8.84
2023-02-20T12:50:24.744Z,8.86
2023-02-20T12:53:21.223Z,8.78
2023-02-20T12:56:16.782Z,8.82
2023-02-20T12:59:38.707Z,8.89
2023-02-20T13:02:48.444Z,8.96
2023-02-20T13:05:24.592Z,8.96
2023-02-20T13:08:01.408Z,8.98
2023-02-20T13:10:46.756Z,9.05
2023-02-20T13:13:14.239Z,9.15
2023-02-20T13:16:11.432Z,9.23
2023-02-20T13:19:22.480Z,9.32
2023-02-20T13:21:50.168Z,9.35
2023-02-20T13:24:20.103Z,9.44
2023-02-20T13:26:56.904Z,9.42
2023-02-20T13:29:27.875Z,9.45
2023-02-20T13:32:00.145Z,9.48
2023-02-20T13:34:36.256Z,9.54
2023-02-20T13:37:05.188Z,9.58
2023-02-20T13:39:32.144Z,9.60
2023-02-20T13:42:04.879Z,9.58
2023-02-20T13:44:43.348Z,9.55
2023-02-20T13:47:27.325Z,9.50
2023-02-20T13:50:00.260Z,9.49
2023-02-20T13:52:43.071Z,9.52
2023-02-20T13:55:10.768Z,9.53
2023-02-20T13:57:52.017Z,9.54
2023-02-20T14:00:51.192Z,9.56
2023-02-20T14:03:23.579Z,9.60
2023-02-20T14:06:11.758Z,9.58
2023-02-20T14:08:46.972Z,9.60
2023-02-20T14:11:31.223Z,9.60
2023-02-20T14:14:08.928Z,9.60
2023-02-20T14:16:42.102Z,9.59
2023-02-20T14:19:23.833Z,9.56
2023-02-20T14:21:51.950Z,9.53
2023-02-20T14:24:28.979Z,9.51
2023-02-20T14:26:56.901Z,9.52
2023-02-20T14:29:33.512Z,9.47
2023-02-20T14:32:03.838Z,9.47
2023-02-20T14:34:54.073Z,9.44
2023-02-20T14:37:48.827Z,9.42
2023-02-20T14:40:34.755Z,9.39
2023-02-20T14:43:08.238Z,9.33
2023-02-20T14:45:36.109Z,9.25
2023-02-20T14:48:05.024Z,9.21
2023-02-20T14:50:36.737Z,9.16
2023-02-20T14:53:20.802Z,9.13
2023-02-20T14:55:51.877Z,9.08
2023-02-20T14:58:25.147Z,9.04
2023-02-20T15:00:53.529Z,9.02
2023-02-20T15:03:31.553Z,8.94
2023-02-20T15:06:04.861Z,8.91
2023-02-20T15:08:35.998Z,8.88
2023-02-20T15:11:15.875Z,8.83
2023-02-20T15:13:46.947Z,8.83
2023-02-20T15:16:31.029Z,8.77
2023-02-20T15:18:58.893Z,8.73
2023-02-20T15:21:38.171Z,8.68
2023-02-20T15:24:36.996Z,8.63
2023-02-20T15:27:18.749Z,8.61
2023-02-20T15:29:47.741Z,8.57
2023-02-20T15:32:24.734Z,8.55
2023-02-20T15:34:56.164Z,8.49
2023-02-20T15:37:33.895Z,8.45
2023-02-20T15:40:46.068Z,8.41
2023-02-20T15:43:38.182Z,8.38
2023-02-20T15:46:04.041Z,8.35
2023-02-20T15:48:31.402Z,8.33
2023-02-20T15:50:58.620Z,8.33
2023-02-20T15:53:31.851Z,8.30
2023-02-20T15:56:04.675Z,8.24
2023-02-20T15:58:37.797Z,8.22
2023-02-20T16:01:06.690Z,8.22
2023-02-20T16:03:50.499Z,8.21
2023-02-20T16:06:19.696Z,8.22
2023-02-20T16:08:47.435Z,8.23
2023-02-20T16:11:15.015Z,8.24
2023-02-20T16:13:46.814Z,8.26
2023-02-20T16:16:25.011Z,8.27
2023-02-20T16:18:54.996Z,8.29
2023-02-20T16:21:24.019Z,8.30
2023-02-20T16:23:53.016Z,8.32
2023-02-20T16:26:28.699Z,8.33
2023-02-20T16:29:02.600Z,8.38
2023-02-20T16:32:00.730Z,8.41
2023-02-20T16:34:32.306Z,8.44
2023-02-20T16:37:03.579Z,8.47
2023-02-20T16:39:30.880Z,8.49
2023-02-20T16:41:59.287Z,8.50
2023-02-20T16:44:44.866Z,8.54
2023-02-20T16:47:21.981Z,8.57
2023-02-20T16:49:50.319Z,8.59
2023-02-20T16:52:28.784Z,8.68
2023-02-20T16:54:58.939Z,8.71
2023-02-20T16:57:27.034Z,8.76
2023-02-20T16:59:59.409Z,8.79
2023-02-20T17:02:29.970Z,8.83
2023-02-20T17:04:58.435Z,8.87
2023-02-20T17:07:26.478Z,8.88
2023-02-20T17:09:54.031Z,8.90
2023-02-20T17:12:23.727Z,8.94
2023-02-20T17:14:53.497Z,8.97
2023-02-20T17:17:22.110Z,9.01
2023-02-20T17:19:52.804Z,9.06
2023-02-20T17:22:21.170Z,9.09
2023-02-20T17:24:48.689Z,9.12
2023-02-20T17:27:16.257Z,9.14
2023-02-20T17:29:45.360Z,9.18
2023-02-20T17:32:14.105Z,9.20
2023-02-20T17:34:42.177Z,9.21
2023-02-20T17:37:10.586Z,9.26
2023-02-20T17:39:38.920Z,9.28
2023-02-20T17:42:07.189Z,9.30
2023-02-20T17:44:34.898Z,9.32
2023-02-20T17:47:02.099Z,9.34
2023-02-20T17:49:29.658Z,9.36
2023-02-20T17:52:01.261Z,9.39
2023-02-20T17:54:32.280Z,9.42
2023-02-20T17:56:59.785Z,9.43
2023-02-20T17:59:27.711Z,9.45
2023-02-20T18:01:55.137Z,9.46
2023-02-20T18:04:23.074Z,9.47
2023-02-20T18:06:50.164Z,9.50
2023-02-20T18:09:18.761Z,9.52
2023-02-20T18:11:46.492Z,9.50
2023-02-20T18:14:14.540Z,9.49
2023-02-20T18:16:41.744Z,9.51
2023-02-20T18:19:13.608Z,9.56
2023-02-20T18:21:42.736Z,9.58
2023-02-20T18:24:11.528Z,9.60
2023-02-20T18:26:38.801Z,9.62
2023-02-20T18:29:06.198Z,9.66
2023-02-20T18:31:34.516Z,9.68
2023-02-20T18:34:02.559Z,9.67
2023-02-20T18:36:29.793Z,9.67
2023-02-20T18:38:57.867Z,9.70
2023-02-20T18:41:25.478Z,9.73
2023-02-20T18:43:52.808Z,9.72
2023-02-20T18:46:33.029Z,9.73
2023-02-20T18:49:02.395Z,9.76
2023-02-20T18:51:36.521Z,9.77
2023-02-20T18:54:10.883Z,9.78
2023-02-20T18:56:38.869Z,9.77
2023-02-20T18:59:06.374Z,9.77
2023-02-20T19:01:33.989Z,9.79
2023-02-20T19:04:05.625Z,9.81
2023-02-20T19:06:46.396Z,9.82
2023-02-20T19:09:23.464Z,9.84
2023-02-20T19:11:56.491Z,9.88
2023-02-20T19:14:27.500Z,9.89
2023-02-20T19:17:00.251Z,9.91
2023-02-20T19:19:30.841Z,9.92
2023-02-20T19:21:59.096Z,9.92
2023-02-20T19:24:26.904Z,9.92
2023-02-20T19:26:53.953Z,9.89
2023-02-20T19:29:21.276Z,9.88
2023-02-20T19:31:48.265Z,9.91
2023-02-20T19:34:16.594Z,9.93
2023-02-20T19:36:43.875Z,9.94
2023-02-20T19:39:14.528Z,9.97
2023-02-20T19:41:41.780Z,9.98
2023-02-20T19:44:15.972Z,9.99
2023-02-20T19:46:43.781Z,10.02
2023-02-20T19:49:13.039Z,10.03
2023-02-20T19:51:47.947Z,10.05
2023-02-20T19:54:20.008Z,10.03
2023-02-20T19:57:04.210Z,10.03
2023-02-20T19:59:31.723Z,10.01
2023-02-20T20:02:00.881Z,10.01
2023-02-20T20:04:32.205Z,10.02
2023-02-20T20:07:02.583Z,10.02
2023-02-20T20:09:36.723Z,10.02
2023-02-20T20:12:27.507Z,10.00
2023-02-20T20:39:55.349Z,9.81
2023-02-20T20:42:26.748Z,9.82
2023-02-20T20:44:57.460Z,9.79
2023-02-20T20:49:05.834Z,9.80
2023-02-20T20:51:33.457Z,9.83
2023-02-20T20:54:00.831Z,9.85
2023-02-20T20:56:28.187Z,9.85
2023-02-20T20:58:55.094Z,9.84
2023-02-20T21:01:22.611Z,9.86
2023-02-20T21:03:49.701Z,9.86
2023-02-20T21:06:16.877Z,9.85
2023-02-20T21:08:43.796Z,9.88
2023-02-20T21:11:23.395Z,9.89
2023-02-20T21:13:50.335Z,9.91
2023-02-20T21:21:17.482Z,9.96
2023-02-20T21:23:45.449Z,9.97
2023-02-20T21:26:39.457Z,10.00
2023-02-20T21:29:07.792Z,10.02
2023-02-20T21:31:36.419Z,10.06
2023-02-20T21:34:04.298Z,10.05
2023-02-20T21:36:31.620Z,10.07
2023-02-20T21:38:58.761Z,10.07
2023-02-20T21:41:45.267Z,10.08
2023-02-20T21:44:27.867Z,10.11
2023-02-20T21:46:59.076Z,10.12
2023-02-20T21:49:28.579Z,10.12
2023-02-20T21:51:56.402Z,10.12
2023-02-20T21:54:28.072Z,10.12
2023-02-20T21:56:56.566Z,10.11
2023-02-20T21:59:23.879Z,10.10
2023-02-20T22:01:52.324Z,10.10
2023-02-20T22:04:20.693Z,10.09
2023-02-20T22:07:08.207Z,10.09
2023-02-20T22:09:54.160Z,10.10
2023-02-20T22:12:40.688Z,10.09
2023-02-20T22:15:27.193Z,10.12
2023-02-20T22:18:13.600Z,10.10
2023-02-20T22:20:59.496Z,10.10
2023-02-20T22:23:45.360Z,10.10
2023-02-20T22:26:35.066Z,10.11
2023-02-20T22:29:22.723Z,10.09
2023-02-20T22:32:09.481Z,10.07
2023-02-20T22:35:09.605Z,10.02
2023-02-20T22:37:57.028Z,9.99
2023-02-20T22:40:43.493Z,9.95
2023-02-20T22:43:28.970Z,9.93
2023-02-20T22:46:15.031Z,9.88
2023-02-20T22:49:02.393Z,9.89
2023-02-20T22:51:48.451Z,9.88
2023-02-20T22:54:34.543Z,9.88
2023-02-20T22:57:23.707Z,9.88
2023-02-20T23:00:09.427Z,9.91
2023-02-20T23:02:55.590Z,9.94
2023-02-20T23:05:41.593Z,9.97
2023-02-20T23:08:27.446Z,9.97
2023-02-20T23:11:13.144Z,9.99
2023-02-20T23:13:59.265Z,10.01
2023-02-20T23:16:44.841Z,10.05
2023-02-20T23:19:31.016Z,10.04
2023-02-20T23:22:16.752Z,10.03
2023-02-20T23:25:02.636Z,10.03
2023-02-20T23:27:48.063Z,10.02
2023-02-20T23:30:34.267Z,10.06
2023-02-20T23:33:20.052Z,10.05
2023-02-20T23:36:06.393Z,10.05
2023-02-20T23:38:51.905Z,10.08
2023-02-20T23:41:37.735Z,10.08
2023-02-20T23:44:26.630Z,10.08
2023-02-20T23:47:12.327Z,10.05
2023-02-20T23:49:58.204Z,10.05
2023-02-20T23:52:44.021Z,10.06
2023-02-20T23:55:29.772Z,10.06
2023-02-20T23:58:15.840Z,10.06
